sensor_id;sensor_type;location;lat;lon;timestamp;temperature;humidity
15949;DHT22;14848;50.954;6.642;2022-09-11T00:00:56;15.10;99.90
15949;DHT22;14848;50.954;6.642;2022-09-11T00:03:23;15.10;99.90
15949;DHT22;14848;50.954;6.642;2022-09-11T00:05:49;15.10;99.90
15949;DHT22;14848;50.954;6.642;2022-09-11T00:08:16;15.10;99.90
15949;DHT22;14848;50.954;6.642;2022-09-11T00:10:42;15.10;99.90
15949;DHT22;14848;50.954;6.642;2022-09-11T00:13:08;15.10;99.90
15949;DHT22;14848;50.954;6.642;2022-09-11T00:15:38;15.00;99.90
15949;DHT22;14848;50.954;6.642;2022-09-11T00:18:05;15.00;99.90
15949;DHT22;14848;50.954;6.642;2022-09-11T00:20:32;14.90;99.90
15949;DHT22;14848;50.954;6.642;2022-09-11T00:22:58;14.90;99.90
15949;DHT22;14848;50.954;6.642;2022-09-11T00:25:26;14.80;99.90
15949;DHT22;14848;50.954;6.642;2022-09-11T00:27:52;14.80;99.90
15949;DHT22;14848;50.954;6.642;2022-09-11T00:30:17;14.70;99.90
15949;DHT22;14848;50.954;6.642;2022-09-11T00:32:43;14.70;99.90
15949;DHT22;14848;50.954;6.642;2022-09-11T00:35:08;14.60;99.90
15949;DHT22;14848;50.954;6.642;2022-09-11T00:37:34;14.60;99.90
15949;DHT22;14848;50.954;6.642;2022-09-11T00:39:59;14.60;99.90
15949;DHT22;14848;50.954;6.642;2022-09-11T00:42:25;14.60;99.90
15949;DHT22;14848;50.954;6.642;2022-09-11T00:44:55;14.60;99.90
15949;DHT22;14848;50.954;6.642;2022-09-11T00:47:21;14.50;99.90
15949;DHT22;14848;50.954;6.642;2022-09-11T00:49:47;14.50;99.90
15949;DHT22;14848;50.954;6.642;2022-09-11T00:52:25;14.50;99.90
15949;DHT22;14848;50.954;6.642;2022-09-11T00:54:54;14.50;99.90
15949;DHT22;14848;50.954;6.642;2022-09-11T00:57:22;14.40;99.90
15949;DHT22;14848;50.954;6.642;2022-09-11T00:59:48;14.50;99.90
15949;DHT22;14848;50.954;6.642;2022-09-11T01:02:16;14.40;99.90
15949;DHT22;14848;50.954;6.642;2022-09-11T01:04:43;14.40;99.90
15949;DHT22;14848;50.954;6.642;2022-09-11T01:07:09;14.40;99.90
15949;DHT22;14848;50.954;6.642;2022-09-11T01:09:36;14.30;99.90
15949;DHT22;14848;50.954;6.642;2022-09-11T01:12:09;14.30;99.90
15949;DHT22;14848;50.954;6.642;2022-09-11T01:20:12;14.60;99.90
15949;DHT22;14848;50.954;6.642;2022-09-11T01:30:14;14.80;99.90
15949;DHT22;14848;50.954;6.642;2022-09-11T01:37:36;14.70;99.90
15949;DHT22;14848;50.954;6.642;2022-09-11T01:40:04;14.60;99.90
15949;DHT22;14848;50.954;6.642;2022-09-11T01:42:34;14.60;99.90
15949;DHT22;14848;50.954;6.642;2022-09-11T01:45:00;14.70;99.90
15949;DHT22;14848;50.954;6.642;2022-09-11T01:47:28;14.80;99.90
15949;DHT22;14848;50.954;6.642;2022-09-11T01:50:14;14.80;99.90
15949;DHT22;14848;50.954;6.642;2022-09-11T01:52:53;14.90;99.90
15949;DHT22;14848;50.954;6.642;2022-09-11T01:55:30;14.90;99.90
15949;DHT22;14848;50.954;6.642;2022-09-11T01:58:08;15.00;99.90
15949;DHT22;14848;50.954;6.642;2022-09-11T02:00:36;15.00;99.90
15949;DHT22;14848;50.954;6.642;2022-09-11T02:03:10;15.10;99.90
15949;DHT22;14848;50.954;6.642;2022-09-11T02:06:04;15.10;99.90
15949;DHT22;14848;50.954;6.642;2022-09-11T02:08:52;15.10;99.90
15949;DHT22;14848;50.954;6.642;2022-09-11T02:11:21;15.20;99.90
15949;DHT22;14848;50.954;6.642;2022-09-11T02:19:13;15.20;99.90
15949;DHT22;14848;50.954;6.642;2022-09-11T02:21:40;15.20;99.90
15949;DHT22;14848;50.954;6.642;2022-09-11T02:24:06;15.20;99.90
15949;DHT22;14848;50.954;6.642;2022-09-11T02:26:40;15.20;99.90
15949;DHT22;14848;50.954;6.642;2022-09-11T02:29:06;15.20;99.90
15949;DHT22;14848;50.954;6.642;2022-09-11T02:31:33;15.20;99.90
15949;DHT22;14848;50.954;6.642;2022-09-11T02:33:59;15.20;99.90
15949;DHT22;14848;50.954;6.642;2022-09-11T02:44:30;15.20;99.90
15949;DHT22;14848;50.954;6.642;2022-09-11T02:59:59;15.30;99.90
15949;DHT22;14848;50.954;6.642;2022-09-11T03:02:28;15.30;99.90
15949;DHT22;14848;50.954;6.642;2022-09-11T03:04:54;15.20;99.90
15949;DHT22;14848;50.954;6.642;2022-09-11T03:07:22;15.30;99.90
15949;DHT22;14848;50.954;6.642;2022-09-11T03:09:48;15.30;99.90
15949;DHT22;14848;50.954;6.642;2022-09-11T03:12:14;15.30;99.90
15949;DHT22;14848;50.954;6.642;2022-09-11T03:14:40;15.30;99.90
15949;DHT22;14848;50.954;6.642;2022-09-11T03:17:05;15.30;99.90
15949;DHT22;14848;50.954;6.642;2022-09-11T03:19:32;15.30;99.90
15949;DHT22;14848;50.954;6.642;2022-09-11T03:21:57;15.30;99.90
15949;DHT22;14848;50.954;6.642;2022-09-11T03:24:23;15.40;99.90
15949;DHT22;14848;50.954;6.642;2022-09-11T03:26:50;15.40;99.90
15949;DHT22;14848;50.954;6.642;2022-09-11T03:29:16;15.40;99.90
15949;DHT22;14848;50.954;6.642;2022-09-11T03:31:42;15.40;99.90
15949;DHT22;14848;50.954;6.642;2022-09-11T03:34:07;15.40;99.90
15949;DHT22;14848;50.954;6.642;2022-09-11T03:36:35;15.40;99.90
15949;DHT22;14848;50.954;6.642;2022-09-11T03:39:01;15.40;99.90
15949;DHT22;14848;50.954;6.642;2022-09-11T03:41:26;15.40;99.90
15949;DHT22;14848;50.954;6.642;2022-09-11T03:43:52;15.30;99.90
15949;DHT22;14848;50.954;6.642;2022-09-11T03:46:18;15.30;99.90
15949;DHT22;14848;50.954;6.642;2022-09-11T03:48:44;15.30;99.90
15949;DHT22;14848;50.954;6.642;2022-09-11T03:51:13;15.30;99.90
15949;DHT22;14848;50.954;6.642;2022-09-11T03:53:40;15.30;99.90
15949;DHT22;14848;50.954;6.642;2022-09-11T03:56:06;15.40;99.90
15949;DHT22;14848;50.954;6.642;2022-09-11T03:58:31;15.30;99.90
15949;DHT22;14848;50.954;6.642;2022-09-11T04:00:57;15.30;99.90
15949;DHT22;14848;50.954;6.642;2022-09-11T04:03:23;15.30;99.90
15949;DHT22;14848;50.954;6.642;2022-09-11T04:05:58;15.30;99.90
15949;DHT22;14848;50.954;6.642;2022-09-11T04:08:24;15.30;99.90
15949;DHT22;14848;50.954;6.642;2022-09-11T04:10:58;15.20;99.90
15949;DHT22;14848;50.954;6.642;2022-09-11T04:13:29;15.20;99.90
15949;DHT22;14848;50.954;6.642;2022-09-11T04:15:59;15.20;99.90
15949;DHT22;14848;50.954;6.642;2022-09-11T04:18:25;15.20;99.90
15949;DHT22;14848;50.954;6.642;2022-09-11T04:20:51;15.20;99.90
15949;DHT22;14848;50.954;6.642;2022-09-11T04:23:16;15.20;99.90
15949;DHT22;14848;50.954;6.642;2022-09-11T04:25:42;15.10;99.90
15949;DHT22;14848;50.954;6.642;2022-09-11T04:28:08;15.10;99.90
15949;DHT22;14848;50.954;6.642;2022-09-11T04:30:36;15.10;99.90
15949;DHT22;14848;50.954;6.642;2022-09-11T04:33:03;15.20;99.90
15949;DHT22;14848;50.954;6.642;2022-09-11T04:35:31;15.10;99.90
15949;DHT22;14848;50.954;6.642;2022-09-11T04:37:57;15.10;99.90
15949;DHT22;14848;50.954;6.642;2022-09-11T04:40:22;15.10;99.90
15949;DHT22;14848;50.954;6.642;2022-09-11T04:42:48;15.10;99.90
15949;DHT22;14848;50.954;6.642;2022-09-11T04:45:14;15.00;99.90
15949;DHT22;14848;50.954;6.642;2022-09-11T04:47:40;14.90;99.90
15949;DHT22;14848;50.954;6.642;2022-09-11T04:50:06;14.90;99.90
15949;DHT22;14848;50.954;6.642;2022-09-11T04:52:32;14.80;99.90
15949;DHT22;14848;50.954;6.642;2022-09-11T04:54:58;14.80;99.90
15949;DHT22;14848;50.954;6.642;2022-09-11T04:57:24;14.80;99.90
15949;DHT22;14848;50.954;6.642;2022-09-11T04:59:50;14.80;99.90
15949;DHT22;14848;50.954;6.642;2022-09-11T05:02:17;14.80;99.90
15949;DHT22;14848;50.954;6.642;2022-09-11T05:04:42;14.80;99.90
15949;DHT22;14848;50.954;6.642;2022-09-11T05:07:08;14.80;99.90
15949;DHT22;14848;50.954;6.642;2022-09-11T05:09:38;14.70;99.90
15949;DHT22;14848;50.954;6.642;2022-09-11T05:12:04;14.70;99.90
15949;DHT22;14848;50.954;6.642;2022-09-11T05:14:30;14.70;99.90
15949;DHT22;14848;50.954;6.642;2022-09-11T05:16:57;14.70;99.90
15949;DHT22;14848;50.954;6.642;2022-09-11T05:19:23;14.70;99.90
15949;DHT22;14848;50.954;6.642;2022-09-11T05:21:50;14.60;99.90
15949;DHT22;14848;50.954;6.642;2022-09-11T05:24:16;14.60;99.90
15949;DHT22;14848;50.954;6.642;2022-09-11T05:26:41;14.70;99.90
15949;DHT22;14848;50.954;6.642;2022-09-11T05:29:16;14.70;99.90
15949;DHT22;14848;50.954;6.642;2022-09-11T05:31:44;14.70;99.90
15949;DHT22;14848;50.954;6.642;2022-09-11T05:34:09;14.70;99.90
15949;DHT22;14848;50.954;6.642;2022-09-11T05:36:35;14.70;99.90
15949;DHT22;14848;50.954;6.642;2022-09-11T05:39:02;14.70;99.90
15949;DHT22;14848;50.954;6.642;2022-09-11T05:41:28;14.70;99.90
15949;DHT22;14848;50.954;6.642;2022-09-11T05:43:54;14.70;99.90
15949;DHT22;14848;50.954;6.642;2022-09-11T05:46:20;14.70;99.90
15949;DHT22;14848;50.954;6.642;2022-09-11T05:48:46;14.60;99.90
15949;DHT22;14848;50.954;6.642;2022-09-11T05:51:17;14.60;99.90
15949;DHT22;14848;50.954;6.642;2022-09-11T05:53:52;14.60;99.90
15949;DHT22;14848;50.954;6.642;2022-09-11T05:56:20;14.50;99.90
15949;DHT22;14848;50.954;6.642;2022-09-11T05:58:47;14.60;99.90
15949;DHT22;14848;50.954;6.642;2022-09-11T06:01:19;14.60;99.90
15949;DHT22;14848;50.954;6.642;2022-09-11T06:03:45;14.60;99.90
15949;DHT22;14848;50.954;6.642;2022-09-11T06:06:15;14.60;99.90
15949;DHT22;14848;50.954;6.642;2022-09-11T06:08:42;14.60;99.90
15949;DHT22;14848;50.954;6.642;2022-09-11T06:11:13;14.60;99.90
15949;DHT22;14848;50.954;6.642;2022-09-11T06:13:41;14.60;99.90
15949;DHT22;14848;50.954;6.642;2022-09-11T06:16:12;14.60;99.90
15949;DHT22;14848;50.954;6.642;2022-09-11T06:18:38;14.60;99.90
15949;DHT22;14848;50.954;6.642;2022-09-11T06:21:06;14.60;99.90
15949;DHT22;14848;50.954;6.642;2022-09-11T06:23:33;14.60;99.90
15949;DHT22;14848;50.954;6.642;2022-09-11T06:26:07;14.70;99.90
15949;DHT22;14848;50.954;6.642;2022-09-11T06:28:34;14.60;99.90
15949;DHT22;14848;50.954;6.642;2022-09-11T06:31:04;14.60;99.90
15949;DHT22;14848;50.954;6.642;2022-09-11T06:33:35;14.60;99.90
15949;DHT22;14848;50.954;6.642;2022-09-11T06:36:03;14.60;99.90
15949;DHT22;14848;50.954;6.642;2022-09-11T06:38:30;14.70;99.90
15949;DHT22;14848;50.954;6.642;2022-09-11T06:41:03;14.60;99.90
15949;DHT22;14848;50.954;6.642;2022-09-11T06:43:30;14.70;99.90
15949;DHT22;14848;50.954;6.642;2022-09-11T06:46:06;14.70;99.90
15949;DHT22;14848;50.954;6.642;2022-09-11T06:48:33;14.70;99.90
15949;DHT22;14848;50.954;6.642;2022-09-11T06:51:03;14.80;99.90
15949;DHT22;14848;50.954;6.642;2022-09-11T06:53:29;14.80;99.90
15949;DHT22;14848;50.954;6.642;2022-09-11T06:55:58;14.80;99.90
15949;DHT22;14848;50.954;6.642;2022-09-11T06:58:24;14.80;99.90
15949;DHT22;14848;50.954;6.642;2022-09-11T07:00:50;14.90;99.90
15949;DHT22;14848;50.954;6.642;2022-09-11T07:03:16;14.90;99.90
15949;DHT22;14848;50.954;6.642;2022-09-11T07:05:45;15.00;99.90
15949;DHT22;14848;50.954;6.642;2022-09-11T07:08:11;15.00;99.90
15949;DHT22;14848;50.954;6.642;2022-09-11T07:10:37;15.00;99.90
15949;DHT22;14848;50.954;6.642;2022-09-11T07:13:03;15.00;99.90
15949;DHT22;14848;50.954;6.642;2022-09-11T07:15:29;15.10;99.90
15949;DHT22;14848;50.954;6.642;2022-09-11T07:17:56;15.10;99.90
15949;DHT22;14848;50.954;6.642;2022-09-11T07:20:22;15.10;99.90
15949;DHT22;14848;50.954;6.642;2022-09-11T07:22:47;15.20;99.90
15949;DHT22;14848;50.954;6.642;2022-09-11T07:25:13;15.20;99.90
15949;DHT22;14848;50.954;6.642;2022-09-11T07:27:40;15.20;99.90
15949;DHT22;14848;50.954;6.642;2022-09-11T07:30:06;15.10;99.90
15949;DHT22;14848;50.954;6.642;2022-09-11T07:32:33;15.20;99.90
15949;DHT22;14848;50.954;6.642;2022-09-11T07:34:59;15.30;99.90
15949;DHT22;14848;50.954;6.642;2022-09-11T07:37:26;15.30;99.90
15949;DHT22;14848;50.954;6.642;2022-09-11T07:39:52;15.40;99.90
15949;DHT22;14848;50.954;6.642;2022-09-11T07:42:18;15.50;99.90
15949;DHT22;14848;50.954;6.642;2022-09-11T07:44:43;15.50;99.90
15949;DHT22;14848;50.954;6.642;2022-09-11T07:47:09;15.50;99.90
15949;DHT22;14848;50.954;6.642;2022-09-11T07:49:35;15.50;99.90
15949;DHT22;14848;50.954;6.642;2022-09-11T07:52:01;15.50;99.90
15949;DHT22;14848;50.954;6.642;2022-09-11T07:54:27;15.60;99.90
15949;DHT22;14848;50.954;6.642;2022-09-11T07:56:54;15.70;99.90
15949;DHT22;14848;50.954;6.642;2022-09-11T07:59:20;15.80;99.90
15949;DHT22;14848;50.954;6.642;2022-09-11T08:01:47;16.00;99.90
15949;DHT22;14848;50.954;6.642;2022-09-11T08:04:14;16.10;99.90
15949;DHT22;14848;50.954;6.642;2022-09-11T08:06:41;16.20;99.90
15949;DHT22;14848;50.954;6.642;2022-09-11T08:09:09;16.30;99.90
15949;DHT22;14848;50.954;6.642;2022-09-11T08:11:45;16.40;99.90
15949;DHT22;14848;50.954;6.642;2022-09-11T08:14:13;16.60;99.90
15949;DHT22;14848;50.954;6.642;2022-09-11T08:16:39;16.70;99.90
15949;DHT22;14848;50.954;6.642;2022-09-11T08:19:06;16.80;99.90
15949;DHT22;14848;50.954;6.642;2022-09-11T08:21:33;16.90;99.90
15949;DHT22;14848;50.954;6.642;2022-09-11T08:23:59;17.00;99.90
15949;DHT22;14848;50.954;6.642;2022-09-11T08:26:27;17.20;99.90
15949;DHT22;14848;50.954;6.642;2022-09-11T08:28:53;17.30;99.90
15949;DHT22;14848;50.954;6.642;2022-09-11T08:31:20;17.50;99.90
15949;DHT22;14848;50.954;6.642;2022-09-11T08:33:46;17.40;99.90
15949;DHT22;14848;50.954;6.642;2022-09-11T08:36:13;17.50;99.90
15949;DHT22;14848;50.954;6.642;2022-09-11T08:38:39;17.70;99.90
15949;DHT22;14848;50.954;6.642;2022-09-11T08:43:58;18.20;99.90
15949;DHT22;14848;50.954;6.642;2022-09-11T08:46:30;18.20;99.90
15949;DHT22;14848;50.954;6.642;2022-09-11T08:49:09;18.20;99.90
15949;DHT22;14848;50.954;6.642;2022-09-11T08:51:36;18.20;99.90
15949;DHT22;14848;50.954;6.642;2022-09-11T08:54:04;18.00;99.90
15949;DHT22;14848;50.954;6.642;2022-09-11T08:56:30;18.00;99.90
15949;DHT22;14848;50.954;6.642;2022-09-11T08:59:12;18.00;99.90
15949;DHT22;14848;50.954;6.642;2022-09-11T09:09:40;17.90;99.90
15949;DHT22;14848;50.954;6.642;2022-09-11T09:14:45;17.90;99.90
15949;DHT22;14848;50.954;6.642;2022-09-11T09:17:17;18.00;99.90
15949;DHT22;14848;50.954;6.642;2022-09-11T09:20:45;17.80;99.90
15949;DHT22;14848;50.954;6.642;2022-09-11T09:25:34;17.90;99.90
15949;DHT22;14848;50.954;6.642;2022-09-11T09:28:03;17.90;99.90
15949;DHT22;14848;50.954;6.642;2022-09-11T09:30:33;18.00;99.90
15949;DHT22;14848;50.954;6.642;2022-09-11T09:33:24;18.00;99.90
15949;DHT22;14848;50.954;6.642;2022-09-11T09:35:46;18.00;99.90
15949;DHT22;14848;50.954;6.642;2022-09-11T09:38:13;17.90;99.90
15949;DHT22;14848;50.954;6.642;2022-09-11T09:40:44;17.80;99.90
15949;DHT22;14848;50.954;6.642;2022-09-11T09:43:16;17.80;99.90
15949;DHT22;14848;50.954;6.642;2022-09-11T09:48:32;17.90;99.90
15949;DHT22;14848;50.954;6.642;2022-09-11T09:50:58;17.90;99.90
15949;DHT22;14848;50.954;6.642;2022-09-11T09:55:52;17.90;99.90
15949;DHT22;14848;50.954;6.642;2022-09-11T09:58:20;18.00;99.90
15949;DHT22;14848;50.954;6.642;2022-09-11T10:00:47;18.10;99.90
15949;DHT22;14848;50.954;6.642;2022-09-11T10:03:17;18.10;99.90
15949;DHT22;14848;50.954;6.642;2022-09-11T10:05:42;18.30;99.90
15949;DHT22;14848;50.954;6.642;2022-09-11T10:10:57;18.60;99.90
15949;DHT22;14848;50.954;6.642;2022-09-11T10:13:23;18.70;99.90
15949;DHT22;14848;50.954;6.642;2022-09-11T10:15:54;18.60;99.90
15949;DHT22;14848;50.954;6.642;2022-09-11T10:20:46;18.80;99.90
15949;DHT22;14848;50.954;6.642;2022-09-11T10:23:21;18.80;99.90
15949;DHT22;14848;50.954;6.642;2022-09-11T10:25:47;19.10;99.90
15949;DHT22;14848;50.954;6.642;2022-09-11T10:28:15;19.50;99.90
15949;DHT22;14848;50.954;6.642;2022-09-11T10:33:28;20.00;99.90
15949;DHT22;14848;50.954;6.642;2022-09-11T10:35:54;20.20;99.90
15949;DHT22;14848;50.954;6.642;2022-09-11T10:38:30;20.30;99.90
15949;DHT22;14848;50.954;6.642;2022-09-11T10:43:23;20.10;99.90
15949;DHT22;14848;50.954;6.642;2022-09-11T10:46:03;20.30;99.90
15949;DHT22;14848;50.954;6.642;2022-09-11T10:51:06;20.80;99.90
15949;DHT22;14848;50.954;6.642;2022-09-11T10:53:36;20.70;99.90
15949;DHT22;14848;50.954;6.642;2022-09-11T10:56:03;20.50;99.90
15949;DHT22;14848;50.954;6.642;2022-09-11T10:58:34;20.70;99.90
15949;DHT22;14848;50.954;6.642;2022-09-11T11:01:01;20.60;99.90
15949;DHT22;14848;50.954;6.642;2022-09-11T11:03:27;20.60;99.90
15949;DHT22;14848;50.954;6.642;2022-09-11T11:15:50;20.10;99.90
15949;DHT22;14848;50.954;6.642;2022-09-11T11:18:31;20.40;99.90
15949;DHT22;14848;50.954;6.642;2022-09-11T11:21:09;20.70;99.90
15949;DHT22;14848;50.954;6.642;2022-09-11T11:28:46;21.00;99.90
15949;DHT22;14848;50.954;6.642;2022-09-11T11:31:20;21.10;99.90
15949;DHT22;14848;50.954;6.642;2022-09-11T11:38:45;20.70;99.90
15949;DHT22;14848;50.954;6.642;2022-09-11T11:41:19;20.70;99.90
15949;DHT22;14848;50.954;6.642;2022-09-11T11:43:47;20.90;99.90
15949;DHT22;14848;50.954;6.642;2022-09-11T11:46:16;21.00;99.90
15949;DHT22;14848;50.954;6.642;2022-09-11T11:51:10;21.10;99.90
15949;DHT22;14848;50.954;6.642;2022-09-11T11:53:41;21.20;99.90
15949;DHT22;14848;50.954;6.642;2022-09-11T11:58:52;21.00;99.90
15949;DHT22;14848;50.954;6.642;2022-09-11T12:01:23;21.10;99.90
15949;DHT22;14848;50.954;6.642;2022-09-11T12:04:04;21.00;99.90
15949;DHT22;14848;50.954;6.642;2022-09-11T12:06:33;20.80;99.90
15949;DHT22;14848;50.954;6.642;2022-09-11T12:08:59;21.00;99.90
15949;DHT22;14848;50.954;6.642;2022-09-11T12:11:27;21.10;99.90
15949;DHT22;14848;50.954;6.642;2022-09-11T12:13:54;21.20;99.90
15949;DHT22;14848;50.954;6.642;2022-09-11T12:16:23;21.30;99.90
15949;DHT22;14848;50.954;6.642;2022-09-11T12:19:05;21.50;99.90
15949;DHT22;14848;50.954;6.642;2022-09-11T12:21:33;21.60;99.90
15949;DHT22;14848;50.954;6.642;2022-09-11T12:26:28;21.50;99.90
15949;DHT22;14848;50.954;6.642;2022-09-11T12:39:37;21.20;99.90
15949;DHT22;14848;50.954;6.642;2022-09-11T12:47:10;21.30;99.90
15949;DHT22;14848;50.954;6.642;2022-09-11T12:49:38;21.10;99.90
15949;DHT22;14848;50.954;6.642;2022-09-11T12:52:04;21.00;99.90
15949;DHT22;14848;50.954;6.642;2022-09-11T12:54:38;21.10;99.90
15949;DHT22;14848;50.954;6.642;2022-09-11T12:57:08;21.10;99.90
15949;DHT22;14848;50.954;6.642;2022-09-11T12:59:38;21.20;99.90
15949;DHT22;14848;50.954;6.642;2022-09-11T13:02:13;21.40;99.90
15949;DHT22;14848;50.954;6.642;2022-09-11T13:04:44;21.40;99.90
15949;DHT22;14848;50.954;6.642;2022-09-11T13:07:19;21.60;99.90
15949;DHT22;14848;50.954;6.642;2022-09-11T13:09:49;21.60;99.90
15949;DHT22;14848;50.954;6.642;2022-09-11T13:14:53;21.40;99.90
15949;DHT22;14848;50.954;6.642;2022-09-11T13:20:35;21.30;99.90
15949;DHT22;14848;50.954;6.642;2022-09-11T13:22:36;21.30;99.90
15949;DHT22;14848;50.954;6.642;2022-09-11T13:27:30;21.60;99.90
15949;DHT22;14848;50.954;6.642;2022-09-11T13:30:00;21.70;99.90
15949;DHT22;14848;50.954;6.642;2022-09-11T13:32:26;21.80;99.90
15949;DHT22;14848;50.954;6.642;2022-09-11T13:34:52;21.90;99.90
15949;DHT22;14848;50.954;6.642;2022-09-11T13:37:26;22.00;99.90
15949;DHT22;14848;50.954;6.642;2022-09-11T13:39:55;22.00;99.90
15949;DHT22;14848;50.954;6.642;2022-09-11T13:42:21;22.00;99.90
15949;DHT22;14848;50.954;6.642;2022-09-11T13:44:51;21.80;99.90
15949;DHT22;14848;50.954;6.642;2022-09-11T13:47:21;21.80;99.90
15949;DHT22;14848;50.954;6.642;2022-09-11T13:49:48;21.80;99.90
15949;DHT22;14848;50.954;6.642;2022-09-11T13:52:15;21.90;99.90
15949;DHT22;14848;50.954;6.642;2022-09-11T13:54:44;22.10;99.90
15949;DHT22;14848;50.954;6.642;2022-09-11T13:57:15;22.30;99.90
15949;DHT22;14848;50.954;6.642;2022-09-11T14:00:34;22.20;99.90
15949;DHT22;14848;50.954;6.642;2022-09-11T14:07:53;22.20;99.90
15949;DHT22;14848;50.954;6.642;2022-09-11T14:15:28;22.30;99.90
15949;DHT22;14848;50.954;6.642;2022-09-11T14:17:55;22.20;99.90
15949;DHT22;14848;50.954;6.642;2022-09-11T14:20:21;22.10;99.90
15949;DHT22;14848;50.954;6.642;2022-09-11T14:22:51;22.00;99.90
15949;DHT22;14848;50.954;6.642;2022-09-11T14:25:18;21.90;99.90
15949;DHT22;14848;50.954;6.642;2022-09-11T14:27:44;21.80;99.90
15949;DHT22;14848;50.954;6.642;2022-09-11T14:30:23;21.90;99.90
15949;DHT22;14848;50.954;6.642;2022-09-11T14:33:04;22.00;99.90
15949;DHT22;14848;50.954;6.642;2022-09-11T14:35:29;22.10;99.90
15949;DHT22;14848;50.954;6.642;2022-09-11T14:37:56;22.20;99.90
15949;DHT22;14848;50.954;6.642;2022-09-11T14:40:21;22.20;99.90
15949;DHT22;14848;50.954;6.642;2022-09-11T14:42:47;22.30;99.90
15949;DHT22;14848;50.954;6.642;2022-09-11T14:45:20;22.30;99.90
15949;DHT22;14848;50.954;6.642;2022-09-11T14:47:47;22.20;99.90
15949;DHT22;14848;50.954;6.642;2022-09-11T14:50:12;22.30;99.90
15949;DHT22;14848;50.954;6.642;2022-09-11T14:52:38;22.20;99.90
15949;DHT22;14848;50.954;6.642;2022-09-11T14:55:05;22.30;99.90
15949;DHT22;14848;50.954;6.642;2022-09-11T14:57:33;22.30;99.90
15949;DHT22;14848;50.954;6.642;2022-09-11T14:59:59;23.30;99.90
15949;DHT22;14848;50.954;6.642;2022-09-11T15:02:25;22.40;99.90
15949;DHT22;14848;50.954;6.642;2022-09-11T15:04:52;22.50;99.90
15949;DHT22;14848;50.954;6.642;2022-09-11T15:07:18;22.50;99.90
15949;DHT22;14848;50.954;6.642;2022-09-11T15:09:44;22.50;99.90
15949;DHT22;14848;50.954;6.642;2022-09-11T15:12:11;22.50;99.90
15949;DHT22;14848;50.954;6.642;2022-09-11T15:14:37;22.50;99.90
15949;DHT22;14848;50.954;6.642;2022-09-11T15:17:03;22.50;99.90
15949;DHT22;14848;50.954;6.642;2022-09-11T15:19:29;22.60;99.90
15949;DHT22;14848;50.954;6.642;2022-09-11T15:21:55;22.60;99.90
15949;DHT22;14848;50.954;6.642;2022-09-11T15:24:21;22.50;99.90
15949;DHT22;14848;50.954;6.642;2022-09-11T15:26:48;22.30;99.90
15949;DHT22;14848;50.954;6.642;2022-09-11T15:29:14;22.40;99.90
15949;DHT22;14848;50.954;6.642;2022-09-11T15:31:39;22.40;99.90
15949;DHT22;14848;50.954;6.642;2022-09-11T15:34:05;22.40;99.90
15949;DHT22;14848;50.954;6.642;2022-09-11T15:36:32;22.30;99.90
15949;DHT22;14848;50.954;6.642;2022-09-11T15:38:57;22.20;99.90
15949;DHT22;14848;50.954;6.642;2022-09-11T15:41:23;22.10;99.90
15949;DHT22;14848;50.954;6.642;2022-09-11T15:43:54;22.20;99.90
15949;DHT22;14848;50.954;6.642;2022-09-11T15:46:20;22.30;99.90
15949;DHT22;14848;50.954;6.642;2022-09-11T15:48:47;22.20;99.90
15949;DHT22;14848;50.954;6.642;2022-09-11T15:51:14;22.20;99.90
15949;DHT22;14848;50.954;6.642;2022-09-11T15:53:40;22.20;99.90
15949;DHT22;14848;50.954;6.642;2022-09-11T15:56:07;22.20;99.90
15949;DHT22;14848;50.954;6.642;2022-09-11T15:58:36;22.20;99.90
15949;DHT22;14848;50.954;6.642;2022-09-11T16:01:04;22.40;99.90
15949;DHT22;14848;50.954;6.642;2022-09-11T16:03:30;22.50;99.90
15949;DHT22;14848;50.954;6.642;2022-09-11T16:05:56;22.50;99.90
15949;DHT22;14848;50.954;6.642;2022-09-11T16:08:22;22.50;99.90
15949;DHT22;14848;50.954;6.642;2022-09-11T16:10:51;22.50;99.90
15949;DHT22;14848;50.954;6.642;2022-09-11T16:13:18;22.50;99.90
15949;DHT22;14848;50.954;6.642;2022-09-11T16:15:44;22.40;99.90
15949;DHT22;14848;50.954;6.642;2022-09-11T16:18:10;22.40;99.90
15949;DHT22;14848;50.954;6.642;2022-09-11T16:20:36;22.40;99.90
15949;DHT22;14848;50.954;6.642;2022-09-11T16:23:08;22.60;99.90
15949;DHT22;14848;50.954;6.642;2022-09-11T16:25:40;22.80;99.90
15949;DHT22;14848;50.954;6.642;2022-09-11T16:28:06;22.90;99.90
15949;DHT22;14848;50.954;6.642;2022-09-11T16:30:39;23.00;99.90
15949;DHT22;14848;50.954;6.642;2022-09-11T16:33:05;23.00;99.90
15949;DHT22;14848;50.954;6.642;2022-09-11T16:35:31;23.10;99.90
15949;DHT22;14848;50.954;6.642;2022-09-11T16:37:58;23.10;99.90
15949;DHT22;14848;50.954;6.642;2022-09-11T16:40:25;23.20;99.90
15949;DHT22;14848;50.954;6.642;2022-09-11T16:42:50;23.30;99.90
15949;DHT22;14848;50.954;6.642;2022-09-11T16:45:16;23.30;99.90
15949;DHT22;14848;50.954;6.642;2022-09-11T16:47:41;23.30;99.90
15949;DHT22;14848;50.954;6.642;2022-09-11T16:50:07;23.10;99.90
15949;DHT22;14848;50.954;6.642;2022-09-11T16:52:33;23.00;99.90
15949;DHT22;14848;50.954;6.642;2022-09-11T16:54:59;22.90;99.90
15949;DHT22;14848;50.954;6.642;2022-09-11T16:57:24;23.00;99.90
15949;DHT22;14848;50.954;6.642;2022-09-11T16:59:51;23.10;99.90
15949;DHT22;14848;50.954;6.642;2022-09-11T17:02:17;23.00;99.90
15949;DHT22;14848;50.954;6.642;2022-09-11T17:04:42;22.90;99.90
15949;DHT22;14848;50.954;6.642;2022-09-11T17:07:08;22.80;99.90
15949;DHT22;14848;50.954;6.642;2022-09-11T17:09:33;22.70;99.90
15949;DHT22;14848;50.954;6.642;2022-09-11T17:11:59;22.50;99.90
15949;DHT22;14848;50.954;6.642;2022-09-11T17:14:26;22.40;99.90
15949;DHT22;14848;50.954;6.642;2022-09-11T17:16:54;22.30;99.90
15949;DHT22;14848;50.954;6.642;2022-09-11T17:19:20;22.10;99.90
15949;DHT22;14848;50.954;6.642;2022-09-11T17:21:45;22.00;99.90
15949;DHT22;14848;50.954;6.642;2022-09-11T17:24:11;21.60;99.90
15949;DHT22;14848;50.954;6.642;2022-09-11T17:26:37;21.70;99.90
15949;DHT22;14848;50.954;6.642;2022-09-11T17:29:03;21.50;99.90
15949;DHT22;14848;50.954;6.642;2022-09-11T17:31:29;21.30;99.90
15949;DHT22;14848;50.954;6.642;2022-09-11T17:33:54;21.20;99.90
15949;DHT22;14848;50.954;6.642;2022-09-11T17:36:21;21.00;99.90
15949;DHT22;14848;50.954;6.642;2022-09-11T17:38:48;20.90;99.90
15949;DHT22;14848;50.954;6.642;2022-09-11T17:41:14;20.80;99.90
15949;DHT22;14848;50.954;6.642;2022-09-11T17:43:39;20.20;99.90
15949;DHT22;14848;50.954;6.642;2022-09-11T17:46:09;20.40;99.90
15949;DHT22;14848;50.954;6.642;2022-09-11T17:48:37;20.30;99.90
15949;DHT22;14848;50.954;6.642;2022-09-11T17:51:14;20.10;99.90
15949;DHT22;14848;50.954;6.642;2022-09-11T17:53:48;20.00;99.90
15949;DHT22;14848;50.954;6.642;2022-09-11T17:56:16;19.80;99.90